createdAt,value
2023-05-11T00:00:12.949Z,0.00
2023-05-11T00:01:12.940Z,0.00
2023-05-11T00:02:12.936Z,0.00
2023-05-11T00:03:13.033Z,0.00
2023-05-11T00:04:12.948Z,0.00
2023-05-11T00:05:12.896Z,0.00
2023-05-11T00:06:12.866Z,0.00
2023-05-11T00:07:12.882Z,0.00
2023-05-11T00:08:14.300Z,0.00
2023-05-11T00:09:12.869Z,0.00
2023-05-11T00:10:12.861Z,0.00
2023-05-11T00:11:12.824Z,0.00
2023-05-11T00:12:12.806Z,0.00
2023-05-11T00:13:12.791Z,0.00
2023-05-11T00:14:12.782Z,0.00
2023-05-11T00:15:12.778Z,0.00
2023-05-11T00:16:12.802Z,0.00
2023-05-11T00:17:12.752Z,0.00
2023-05-11T00:18:12.725Z,0.00
2023-05-11T00:19:12.774Z,0.00
2023-05-11T00:20:12.719Z,0.00
2023-05-11T00:21:12.724Z,0.00
2023-05-11T00:22:12.695Z,0.00
2023-05-11T00:23:12.679Z,0.00
2023-05-11T00:24:12.680Z,0.00
2023-05-11T00:25:12.686Z,0.00
2023-05-11T00:26:12.655Z,0.00
2023-05-11T00:27:12.644Z,0.00
2023-05-11T00:28:12.657Z,0.00
2023-05-11T00:29:12.610Z,0.00
2023-05-11T00:30:12.606Z,0.00
2023-05-11T00:31:12.626Z,0.00
2023-05-11T00:32:12.609Z,0.00
2023-05-11T00:33:12.605Z,0.00
2023-05-11T00:34:12.563Z,0.00
2023-05-11T00:35:12.558Z,0.00
2023-05-11T00:36:12.534Z,0.00
2023-05-11T00:37:12.539Z,0.00
2023-05-11T00:38:12.530Z,0.00
2023-05-11T00:39:12.553Z,0.00
2023-05-11T00:40:12.497Z,0.00
2023-05-11T00:41:12.494Z,0.00
2023-05-11T00:42:12.496Z,0.00
2023-05-11T00:43:12.470Z,0.00
2023-05-11T00:44:12.456Z,0.00
2023-05-11T00:45:12.436Z,0.00
2023-05-11T00:46:12.424Z,0.00
2023-05-11T00:47:12.514Z,0.00
2023-05-11T00:48:12.416Z,0.00
2023-05-11T00:49:12.395Z,0.00
2023-05-11T00:50:12.385Z,0.00
2023-05-11T00:51:12.378Z,0.00
2023-05-11T00:52:12.381Z,0.00
2023-05-11T00:53:12.352Z,0.00
2023-05-11T00:54:12.355Z,0.00
2023-05-11T00:55:12.344Z,0.00
2023-05-11T00:56:12.341Z,0.00
2023-05-11T00:57:12.305Z,0.00
2023-05-11T00:58:12.316Z,0.00
2023-05-11T00:59:12.289Z,0.00
2023-05-11T01:00:12.299Z,0.00
2023-05-11T01:01:12.345Z,0.00
2023-05-11T01:02:12.279Z,0.00
2023-05-11T01:03:12.286Z,0.00
2023-05-11T01:04:12.225Z,0.00
2023-05-11T01:05:12.234Z,0.00
2023-05-11T01:06:12.245Z,0.00
2023-05-11T01:07:12.224Z,0.00
2023-05-11T01:08:12.210Z,0.00
2023-05-11T01:09:12.188Z,0.00
2023-05-11T01:10:12.184Z,0.00
2023-05-11T01:11:12.178Z,0.00
2023-05-11T01:12:12.167Z,0.00
2023-05-11T01:13:12.154Z,0.00
2023-05-11T01:14:12.128Z,0.00
2023-05-11T01:15:12.123Z,0.00
2023-05-11T01:16:12.177Z,0.00
2023-05-11T01:17:12.102Z,0.00
2023-05-11T01:18:12.131Z,0.00
2023-05-11T01:19:12.101Z,0.00
2023-05-11T01:20:12.069Z,0.00
2023-05-11T01:21:12.059Z,0.00
2023-05-11T01:22:12.066Z,0.00
2023-05-11T01:23:12.043Z,0.00
2023-05-11T01:24:12.032Z,0.00
2023-05-11T01:25:12.024Z,0.00
2023-05-11T01:26:12.018Z,0.00
2023-05-11T01:27:11.982Z,0.00
2023-05-11T01:28:11.980Z,0.00
2023-05-11T01:29:11.983Z,0.00
2023-05-11T01:30:11.947Z,0.00
2023-05-11T01:31:11.940Z,0.00
2023-05-11T01:32:11.975Z,0.00
2023-05-11T01:33:12.008Z,0.00
2023-05-11T01:34:11.922Z,0.00
2023-05-11T01:35:11.923Z,0.00
2023-05-11T01:36:11.933Z,0.00
2023-05-11T01:37:11.905Z,0.00
2023-05-11T01:38:11.928Z,0.00
2023-05-11T01:39:11.909Z,0.00
2023-05-11T01:40:11.869Z,0.00
2023-05-11T01:41:11.840Z,0.00
2023-05-11T01:42:11.875Z,0.00
2023-05-11T01:43:11.876Z,0.00
2023-05-11T01:44:11.875Z,0.00
2023-05-11T01:45:11.877Z,0.00
2023-05-11T01:46:11.834Z,0.00
2023-05-11T01:47:11.769Z,0.00
2023-05-11T01:48:11.771Z,0.00
2023-05-11T01:49:11.788Z,0.00
2023-05-11T01:50:11.751Z,0.00
2023-05-11T01:51:11.737Z,0.00
2023-05-11T01:52:11.717Z,0.00
2023-05-11T01:53:11.712Z,0.00
2023-05-11T01:54:11.675Z,0.00
2023-05-11T01:55:11.694Z,0.00
2023-05-11T01:56:11.675Z,0.00
2023-05-11T01:57:11.654Z,0.00
2023-05-11T01:58:11.636Z,0.00
2023-05-11T01:59:11.632Z,0.00
2023-05-11T02:00:11.637Z,0.00
2023-05-11T02:01:11.676Z,0.00
2023-05-11T02:02:11.616Z,0.00
2023-05-11T02:03:11.732Z,0.00
2023-05-11T02:04:11.590Z,0.00
2023-05-11T02:05:11.571Z,0.00
2023-05-11T02:06:11.568Z,0.00
2023-05-11T02:07:11.546Z,0.00
2023-05-11T02:08:11.542Z,0.00
2023-05-11T02:09:11.523Z,0.00
2023-05-11T02:10:11.510Z,0.00
2023-05-11T02:11:11.510Z,0.00
2023-05-11T02:12:11.498Z,0.00
2023-05-11T02:13:11.496Z,0.00
2023-05-11T02:14:11.483Z,0.00
2023-05-11T02:15:11.460Z,0.00
2023-05-11T02:16:11.473Z,0.00
2023-05-11T02:17:11.441Z,0.00
2023-05-11T02:18:11.419Z,0.00
2023-05-11T02:19:11.443Z,0.00
2023-05-11T02:20:11.394Z,0.00
2023-05-11T02:21:11.394Z,0.00
2023-05-11T02:22:11.410Z,0.00
2023-05-11T02:23:11.379Z,0.00
2023-05-11T02:24:11.362Z,0.00
2023-05-11T02:25:11.373Z,0.00
2023-05-11T02:26:11.333Z,0.00
2023-05-11T02:27:11.329Z,0.00
2023-05-11T02:28:11.320Z,0.00
2023-05-11T02:29:11.322Z,0.00
2023-05-11T02:30:11.297Z,0.00
2023-05-11T02:31:11.322Z,0.00
2023-05-11T02:32:11.297Z,0.00
2023-05-11T02:33:11.268Z,0.00
2023-05-11T02:34:11.268Z,0.00
2023-05-11T02:35:11.247Z,0.00
2023-05-11T02:36:11.224Z,0.00
2023-05-11T02:37:11.253Z,0.00
2023-05-11T02:38:11.207Z,0.00
2023-05-11T02:39:11.214Z,0.00
2023-05-11T02:40:11.181Z,0.00
2023-05-11T02:41:11.186Z,0.00
2023-05-11T02:42:11.160Z,0.00
2023-05-11T02:43:11.170Z,0.00
2023-05-11T02:44:11.152Z,0.00
2023-05-11T02:45:11.155Z,0.00
2023-05-11T02:46:11.141Z,0.00
2023-05-11T02:47:11.117Z,0.00
2023-05-11T02:48:11.110Z,0.00
2023-05-11T02:49:11.107Z,0.00
2023-05-11T02:50:11.100Z,0.00
2023-05-11T02:51:11.074Z,0.00
2023-05-11T02:52:11.058Z,0.00
2023-05-11T02:53:11.050Z,0.00
2023-05-11T02:54:11.032Z,0.00
2023-05-11T02:55:11.047Z,0.00
2023-05-11T02:56:11.016Z,0.00
2023-05-11T02:57:10.999Z,0.00
2023-05-11T02:58:11.016Z,0.00
2023-05-11T02:59:10.999Z,0.00
2023-05-11T03:00:10.990Z,0.00
2023-05-11T03:01:11.065Z,0.00
2023-05-11T03:02:11.091Z,0.00
2023-05-11T03:03:11.048Z,0.00
2023-05-11T03:04:10.961Z,0.00
2023-05-11T03:05:10.987Z,0.00
2023-05-11T03:06:10.919Z,0.00
2023-05-11T03:07:10.902Z,0.00
2023-05-11T03:08:10.909Z,0.00
2023-05-11T03:09:10.872Z,0.00
2023-05-11T03:10:10.862Z,0.00
2023-05-11T03:11:10.885Z,0.00
2023-05-11T03:12:10.840Z,0.00
2023-05-11T03:13:10.842Z,0.00
2023-05-11T03:14:10.849Z,0.00
2023-05-11T03:15:10.814Z,0.00
2023-05-11T03:16:10.814Z,0.00
2023-05-11T03:17:10.789Z,0.00
2023-05-11T03:18:10.778Z,0.00
2023-05-11T03:19:10.777Z,0.00
2023-05-11T03:20:10.757Z,0.00
2023-05-11T03:21:10.763Z,0.00
2023-05-11T03:22:10.734Z,0.00
2023-05-11T03:23:10.732Z,0.00
2023-05-11T03:24:10.709Z,0.00
2023-05-11T03:25:10.755Z,0.00
2023-05-11T03:26:10.728Z,0.00
2023-05-11T03:27:10.693Z,0.00
2023-05-11T03:28:10.669Z,0.00
2023-05-11T03:29:10.669Z,0.00
2023-05-11T03:30:10.650Z,0.00
2023-05-11T03:31:10.657Z,4.00
2023-05-11T03:32:10.672Z,4.00
2023-05-11T03:33:10.702Z,4.00
2023-05-11T03:34:10.608Z,0.00
2023-05-11T03:35:10.631Z,4.00
2023-05-11T03:36:10.586Z,4.00
2023-05-11T03:37:10.598Z,4.00
2023-05-11T03:38:10.560Z,4.00
2023-05-11T03:39:10.577Z,4.00
2023-05-11T03:40:10.573Z,8.00
2023-05-11T03:41:10.543Z,8.00
2023-05-11T03:42:10.544Z,4.00
2023-05-11T03:43:10.519Z,8.00
2023-05-11T03:44:10.506Z,8.00
2023-05-11T03:45:10.491Z,8.00
2023-05-11T03:46:11.239Z,8.00
2023-05-11T03:47:10.516Z,12.00
2023-05-11T03:48:11.482Z,12.00
2023-05-11T03:49:12.854Z,12.00
2023-05-11T03:50:11.247Z,16.00
2023-05-11T03:51:10.467Z,16.00
2023-05-11T03:52:11.457Z,16.00
2023-05-11T03:53:10.937Z,16.00
2023-05-11T03:54:11.214Z,20.00
2023-05-11T03:55:10.427Z,20.00
2023-05-11T03:56:11.083Z,24.00
2023-05-11T03:57:10.439Z,28.00
2023-05-11T03:58:11.240Z,28.00
2023-05-11T03:59:10.498Z,32.00
2023-05-11T04:00:11.145Z,28.00
2023-05-11T04:01:10.442Z,32.00
2023-05-11T04:02:11.142Z,36.00
2023-05-11T04:03:10.703Z,36.00
2023-05-11T04:04:10.533Z,40.00
2023-05-11T04:05:10.402Z,44.00
2023-05-11T04:06:10.990Z,48.00
2023-05-11T04:07:10.295Z,52.00
2023-05-11T04:08:11.223Z,56.00
2023-05-11T04:09:10.336Z,60.00
2023-05-11T04:10:10.999Z,64.00
2023-05-11T04:11:10.316Z,68.00
2023-05-11T04:12:10.938Z,76.00
2023-05-11T04:13:10.289Z,80.00
2023-05-11T04:14:10.913Z,88.00
2023-05-11T04:15:10.229Z,92.00
2023-05-11T04:16:10.985Z,100.00
2023-05-11T04:17:10.279Z,108.00
2023-05-11T04:18:10.356Z,120.00
2023-05-11T04:19:10.159Z,124.00
2023-05-11T04:20:10.889Z,136.00
2023-05-11T04:21:10.136Z,144.00
2023-05-11T04:22:10.812Z,148.00
2023-05-11T04:23:10.620Z,156.00
2023-05-11T04:24:10.786Z,160.00
2023-05-11T04:25:10.122Z,168.00
2023-05-11T04:26:10.070Z,176.00
2023-05-11T04:27:10.119Z,184.00
2023-05-11T04:28:10.071Z,192.00
2023-05-11T04:29:10.065Z,196.00
2023-05-11T04:30:11.505Z,208.00
2023-05-11T04:31:10.069Z,216.00
2023-05-11T04:32:10.006Z,224.00
2023-05-11T04:33:09.984Z,236.00
2023-05-11T04:34:09.969Z,248.00
2023-05-11T04:35:09.978Z,260.00
2023-05-11T04:36:09.946Z,272.00
2023-05-11T04:37:09.934Z,284.00
2023-05-11T04:38:09.942Z,296.00
2023-05-11T04:39:09.922Z,304.00
2023-05-11T04:40:09.893Z,312.00
2023-05-11T04:41:09.909Z,324.00
2023-05-11T04:42:09.871Z,336.00
2023-05-11T04:43:09.862Z,344.00
2023-05-11T04:44:09.847Z,352.00
2023-05-11T04:45:09.843Z,360.00
2023-05-11T04:46:09.844Z,368.00
2023-05-11T04:47:09.944Z,376.00
2023-05-11T04:48:09.868Z,384.00
2023-05-11T04:49:09.801Z,396.00
2023-05-11T04:50:09.778Z,408.00
2023-05-11T04:51:09.798Z,424.00
2023-05-11T04:52:09.762Z,440.00
2023-05-11T04:53:09.766Z,452.00
2023-05-11T04:54:09.743Z,472.00
2023-05-11T04:55:09.742Z,484.00
2023-05-11T04:56:09.739Z,492.00
2023-05-11T04:57:09.709Z,496.00
2023-05-11T04:58:09.699Z,504.00
2023-05-11T04:59:09.706Z,508.00
2023-05-11T05:00:09.724Z,516.00
2023-05-11T05:01:09.739Z,528.00
2023-05-11T05:02:09.706Z,540.00
2023-05-11T05:03:09.699Z,552.00
2023-05-11T05:04:09.655Z,564.00
2023-05-11T05:05:09.624Z,580.00
2023-05-11T05:06:09.631Z,592.00
2023-05-11T05:07:09.602Z,604.00
2023-05-11T05:08:09.589Z,624.00
2023-05-11T05:09:09.584Z,636.00
2023-05-11T05:10:09.572Z,652.00
2023-05-11T05:11:09.568Z,672.00
2023-05-11T05:12:09.554Z,684.00
2023-05-11T05:13:09.571Z,704.00
2023-05-11T05:14:09.539Z,720.00
2023-05-11T05:15:09.518Z,740.00
2023-05-11T05:16:09.516Z,760.00
2023-05-11T05:17:09.559Z,776.00
2023-05-11T05:18:09.538Z,796.00
2023-05-11T05:19:09.497Z,812.00
2023-05-11T05:20:09.467Z,820.00
2023-05-11T05:21:09.467Z,828.00
2023-05-11T05:22:09.448Z,832.00
2023-05-11T05:23:09.434Z,832.00
2023-05-11T05:24:09.424Z,836.00
2023-05-11T05:25:09.424Z,844.00
2023-05-11T05:26:09.408Z,852.00
2023-05-11T05:27:09.399Z,864.00
2023-05-11T05:28:09.393Z,876.00
2023-05-11T05:29:09.387Z,892.00
2023-05-11T05:30:09.390Z,904.00
2023-05-11T05:31:09.400Z,924.00
2023-05-11T05:32:09.351Z,936.00
2023-05-11T05:33:09.353Z,948.00
2023-05-11T05:34:09.314Z,964.00
2023-05-11T05:35:09.326Z,976.00
2023-05-11T05:36:09.314Z,992.00
2023-05-11T05:37:09.294Z,1000.00
2023-05-11T05:38:09.276Z,1016.00
2023-05-11T05:39:09.265Z,1028.00
2023-05-11T05:40:09.253Z,1032.00
2023-05-11T05:41:09.243Z,1036.00
2023-05-11T05:42:09.240Z,1036.00
2023-05-11T05:43:09.230Z,1040.00
2023-05-11T05:44:09.207Z,1052.00
2023-05-11T05:45:09.217Z,1064.00
2023-05-11T05:46:09.224Z,1080.00
2023-05-11T05:47:09.167Z,1100.00
2023-05-11T05:48:09.204Z,1120.00
2023-05-11T05:49:09.157Z,1144.00
2023-05-11T05:50:09.154Z,1160.00
2023-05-11T05:51:09.147Z,1180.00
2023-05-11T05:52:09.124Z,1200.00
2023-05-11T05:53:09.127Z,1228.00
2023-05-11T05:54:09.098Z,1256.00
2023-05-11T05:55:09.098Z,1284.00
2023-05-11T05:56:09.081Z,1316.00
2023-05-11T05:57:09.069Z,1348.00
2023-05-11T05:58:09.062Z,1380.00
2023-05-11T05:59:09.048Z,1408.00
2023-05-11T06:00:09.028Z,1432.00
2023-05-11T06:01:09.016Z,1448.00
2023-05-11T06:02:09.798Z,1460.00
2023-05-11T06:03:09.137Z,1476.00
2023-05-11T06:04:09.210Z,1484.00
2023-05-11T06:05:08.996Z,1492.00
2023-05-11T06:06:08.979Z,1500.00
2023-05-11T06:07:08.963Z,1504.00
2023-05-11T06:08:10.651Z,1516.00
2023-05-11T06:09:08.944Z,1520.00
2023-05-11T06:10:08.949Z,1536.00
2023-05-11T06:11:08.902Z,1544.00
2023-05-11T06:12:08.929Z,1556.00
2023-05-11T06:13:08.890Z,1568.00
2023-05-11T06:14:08.903Z,1588.00
2023-05-11T06:15:08.883Z,1608.00
2023-05-11T06:16:08.890Z,1624.00
2023-05-11T06:17:08.851Z,1644.00
2023-05-11T06:18:08.944Z,1656.00
2023-05-11T06:19:09.002Z,1672.00
2023-05-11T06:20:08.828Z,1688.00
2023-05-11T06:21:08.809Z,1712.00
2023-05-11T06:22:08.794Z,1728.00
2023-05-11T06:23:08.774Z,1744.00
2023-05-11T06:24:08.778Z,1756.00
2023-05-11T06:25:08.757Z,1772.00
2023-05-11T06:26:08.743Z,1792.00
2023-05-11T06:27:08.750Z,1796.00
2023-05-11T06:28:08.728Z,1788.00
2023-05-11T06:29:08.739Z,1764.00
2023-05-11T06:30:08.708Z,1732.00
2023-05-11T06:31:08.689Z,1716.00
2023-05-11T06:32:08.698Z,1720.00
2023-05-11T06:33:08.713Z,1724.00
2023-05-11T06:34:08.673Z,1728.00
2023-05-11T06:35:08.645Z,1720.00
2023-05-11T06:36:08.641Z,1692.00
2023-05-11T06:37:08.640Z,1668.00
2023-05-11T06:38:08.623Z,1644.00
2023-05-11T06:39:08.610Z,1628.00
2023-05-11T06:40:08.599Z,1628.00
2023-05-11T06:41:08.579Z,1648.00
2023-05-11T06:42:08.591Z,1672.00
2023-05-11T06:43:08.556Z,1700.00
2023-05-11T06:44:08.555Z,1728.00
2023-05-11T06:45:08.583Z,1764.00
2023-05-11T06:46:08.555Z,1808.00
2023-05-11T06:47:08.515Z,1832.00
2023-05-11T06:48:08.544Z,1844.00
2023-05-11T06:49:08.514Z,1836.00
2023-05-11T06:50:08.485Z,1828.00
2023-05-11T06:51:08.470Z,1812.00
2023-05-11T06:52:08.463Z,1820.00
2023-05-11T06:53:08.466Z,1844.00
2023-05-11T06:54:08.447Z,1876.00
2023-05-11T06:55:08.427Z,1908.00
2023-05-11T06:56:08.441Z,1936.00
2023-05-11T06:57:08.421Z,1948.00
2023-05-11T06:58:08.398Z,1952.00
2023-05-11T06:59:08.388Z,1956.00
2023-05-11T07:00:08.389Z,1968.00
2023-05-11T07:01:08.414Z,1984.00
2023-05-11T07:02:08.363Z,2000.00
2023-05-11T07:03:08.374Z,2016.00
2023-05-11T07:04:08.357Z,2024.00
2023-05-11T07:05:08.452Z,2028.00
2023-05-11T07:06:08.327Z,2032.00
2023-05-11T07:07:08.298Z,2036.00
2023-05-11T07:08:08.309Z,2044.00
2023-05-11T07:09:08.272Z,2056.00
2023-05-11T07:10:08.265Z,2068.00
2023-05-11T07:11:08.252Z,2072.00
2023-05-11T07:12:08.247Z,2084.00
2023-05-11T07:13:08.232Z,2092.00
2023-05-11T07:14:08.238Z,2084.00
2023-05-11T07:15:08.205Z,2104.00
2023-05-11T07:16:08.202Z,2124.00
2023-05-11T07:17:08.285Z,2104.00
2023-05-11T07:18:08.214Z,2008.00
2023-05-11T07:19:08.291Z,1796.00
2023-05-11T07:20:08.158Z,1724.00
2023-05-11T07:21:08.150Z,1800.00
2023-05-11T07:22:08.158Z,1968.00
2023-05-11T07:23:08.130Z,1952.00
2023-05-11T07:24:08.119Z,1864.00
2023-05-11T07:25:08.097Z,1748.00
2023-05-11T07:26:08.098Z,1668.00
2023-05-11T07:27:08.074Z,1700.00
2023-05-11T07:28:08.078Z,1912.00
2023-05-11T07:29:08.056Z,2124.00
2023-05-11T07:30:08.060Z,2244.00
2023-05-11T07:31:08.127Z,2232.00
2023-05-11T07:32:08.043Z,2204.00
2023-05-11T07:33:08.063Z,2084.00
2023-05-11T07:34:07.996Z,1900.00
2023-05-11T07:35:08.001Z,2040.00
2023-05-11T07:36:07.998Z,2328.00
2023-05-11T07:37:07.976Z,2520.00
2023-05-11T07:38:08.038Z,2580.00
2023-05-11T07:39:07.951Z,2596.00
2023-05-11T07:40:07.941Z,2540.00
2023-05-11T07:41:09.494Z,2424.00
2023-05-11T07:42:07.937Z,2224.00
2023-05-11T07:43:07.920Z,2016.00
2023-05-11T07:44:07.894Z,1988.00
2023-05-11T07:45:07.880Z,2160.00
2023-05-11T07:46:07.906Z,2348.00
2023-05-11T07:47:07.867Z,2316.00
2023-05-11T07:48:07.954Z,2328.00
2023-05-11T07:50:08.842Z,2844.00
2023-05-11T07:51:07.822Z,2900.00
2023-05-11T07:52:07.812Z,2852.00
2023-05-11T07:53:07.793Z,2868.00
2023-05-11T07:54:07.789Z,2860.00
2023-05-11T07:55:07.767Z,2836.00
2023-05-11T07:56:07.784Z,2724.00
2023-05-11T07:57:07.757Z,2692.00
2023-05-11T07:58:07.752Z,2756.00
2023-05-11T07:59:07.746Z,2776.00
2023-05-11T08:00:08.207Z,2824.00
2023-05-11T08:01:07.726Z,2872.00
2023-05-11T08:02:07.724Z,2884.00
2023-05-11T08:03:07.730Z,2944.00
2023-05-11T08:04:07.695Z,2912.00
2023-05-11T08:05:07.671Z,2956.00
2023-05-11T08:06:07.702Z,2980.00
2023-05-11T08:07:07.656Z,3040.00
2023-05-11T08:08:07.641Z,3180.00
2023-05-11T08:09:07.620Z,3228.00
2023-05-11T08:10:07.618Z,3240.00
2023-05-11T08:11:07.620Z,3200.00
2023-05-11T08:12:07.594Z,3132.00
2023-05-11T08:13:07.579Z,3176.00
2023-05-11T08:14:07.582Z,3300.00
2023-05-11T08:15:07.566Z,3380.00
2023-05-11T08:16:07.587Z,3424.00
2023-05-11T08:17:07.534Z,3484.00
2023-05-11T08:18:07.638Z,3528.00
2023-05-11T08:19:07.540Z,3564.00
2023-05-11T08:20:07.534Z,3592.00
2023-05-11T08:21:07.492Z,3632.00
2023-05-11T08:22:07.490Z,3660.00
2023-05-11T08:23:07.467Z,3684.00
2023-05-11T08:24:07.626Z,3720.00
2023-05-11T08:25:07.490Z,3736.00
2023-05-11T08:26:07.446Z,3740.00
2023-05-11T08:27:07.420Z,3724.00
2023-05-11T08:28:07.440Z,3700.00
2023-05-11T08:29:07.407Z,3668.00
2023-05-11T08:30:08.500Z,3600.00
2023-05-11T08:31:07.380Z,3556.00
2023-05-11T08:32:07.440Z,3544.00
2023-05-11T08:33:20.128Z,3556.00
2023-05-11T08:34:17.847Z,3584.00
2023-05-11T08:35:08.539Z,3608.00
2023-05-11T08:36:07.352Z,3612.00
2023-05-11T08:37:07.317Z,3636.00
2023-05-11T08:38:07.313Z,3656.00
2023-05-11T08:39:07.286Z,3688.00
2023-05-11T08:40:07.286Z,3740.00
2023-05-11T08:41:07.292Z,3736.00
2023-05-11T08:42:07.353Z,3780.00
2023-05-11T08:43:07.257Z,3820.00
2023-05-11T08:44:07.272Z,3836.00
2023-05-11T08:45:07.229Z,3848.00
2023-05-11T08:46:07.312Z,3892.00
2023-05-11T08:47:22.032Z,3900.00
2023-05-11T08:48:08.286Z,3872.00
2023-05-11T08:49:07.184Z,3844.00
2023-05-11T08:50:07.191Z,3796.00
2023-05-11T08:51:07.171Z,3724.00
2023-05-11T08:52:07.943Z,3676.00
2023-05-11T08:53:07.162Z,3688.00
2023-05-11T08:54:07.139Z,3688.00
2023-05-11T08:55:07.124Z,3664.00
2023-05-11T08:56:07.113Z,3616.00
2023-05-11T08:57:07.141Z,3572.00
2023-05-11T08:58:07.100Z,3528.00
2023-05-11T08:59:07.126Z,3536.00
2023-05-11T09:00:07.075Z,3592.00
2023-05-11T09:01:07.127Z,3636.00
2023-05-11T09:02:07.048Z,3744.00
2023-05-11T09:03:07.086Z,3836.00
2023-05-11T09:04:07.024Z,3896.00
2023-05-11T09:05:07.053Z,3912.00
2023-05-11T09:06:07.025Z,3888.00
2023-05-11T09:07:06.985Z,3772.00
2023-05-11T09:08:06.991Z,3648.00
2023-05-11T09:09:06.973Z,3396.00
2023-05-11T09:10:06.957Z,3052.00
2023-05-11T09:11:06.965Z,3296.00
2023-05-11T09:12:06.932Z,3604.00
2023-05-11T09:13:06.934Z,3588.00
2023-05-11T09:14:06.928Z,3412.00
2023-05-11T09:15:06.919Z,3388.00
2023-05-11T09:16:13.874Z,3468.00
2023-05-11T09:17:08.038Z,3540.00
2023-05-11T09:18:06.988Z,3276.00
2023-05-11T09:19:06.968Z,2872.00
2023-05-11T09:20:06.855Z,2544.00
2023-05-11T09:21:06.858Z,2788.00
2023-05-11T09:22:06.837Z,3200.00
2023-05-11T09:23:06.835Z,3516.00
2023-05-11T09:24:06.811Z,3752.00
2023-05-11T09:25:06.806Z,3632.00
2023-05-11T09:26:06.796Z,3300.00
2023-05-11T09:27:06.781Z,3396.00
2023-05-11T09:28:06.782Z,3652.00
2023-05-11T09:29:06.759Z,3700.00
2023-05-11T09:30:06.762Z,3592.00
2023-05-11T09:31:06.818Z,3936.00
2023-05-11T09:32:06.730Z,4120.00
2023-05-11T09:33:06.760Z,4248.00
2023-05-11T09:34:06.707Z,4328.00
2023-05-11T09:35:06.696Z,4380.00
2023-05-11T09:36:06.695Z,4384.00
2023-05-11T09:37:06.671Z,4372.00
2023-05-11T09:38:06.688Z,4352.00
2023-05-11T09:39:06.650Z,4340.00
2023-05-11T09:40:26.307Z,4324.00
2023-05-11T09:41:07.653Z,4268.00
2023-05-11T09:42:06.611Z,4324.00
2023-05-11T09:43:06.601Z,4412.00
2023-05-11T09:44:06.595Z,4492.00
2023-05-11T09:45:06.614Z,4508.00
2023-05-11T09:46:06.620Z,4540.00
2023-05-11T09:47:06.569Z,4588.00
2023-05-11T09:48:06.651Z,4612.00
2023-05-11T09:49:06.535Z,4640.00
2023-05-11T09:50:06.565Z,4664.00
2023-05-11T09:51:06.567Z,4656.00
2023-05-11T09:52:06.529Z,4640.00
2023-05-11T09:53:06.497Z,4692.00
2023-05-11T09:54:06.480Z,4728.00
2023-05-11T09:55:06.476Z,4748.00
2023-05-11T09:56:06.471Z,4452.00
2023-05-11T09:57:06.450Z,4528.00
2023-05-11T09:58:06.461Z,4896.00
2023-05-11T09:59:06.437Z,5004.00
2023-05-11T10:00:06.415Z,5088.00
2023-05-11T10:01:06.480Z,5120.00
2023-05-11T10:02:06.396Z,5044.00
2023-05-11T10:03:06.461Z,4560.00
2023-05-11T10:04:21.956Z,5076.00
2023-05-11T10:05:07.364Z,5100.00
2023-05-11T10:06:06.349Z,5084.00
2023-05-11T10:07:06.358Z,5112.00
2023-05-11T10:08:06.338Z,5096.00
2023-05-11T10:09:06.325Z,4720.00
2023-05-11T10:10:06.328Z,4212.00
2023-05-11T10:11:06.310Z,4660.00
2023-05-11T10:12:06.305Z,4612.00
2023-05-11T10:13:06.277Z,4332.00
2023-05-11T10:14:06.272Z,4624.00
2023-05-11T10:15:06.271Z,5000.00
2023-05-11T10:16:06.318Z,4976.00
2023-05-11T10:17:06.247Z,4816.00
2023-05-11T10:18:06.292Z,4648.00
2023-05-11T10:19:06.242Z,4420.00
2023-05-11T10:20:06.262Z,3772.00
2023-05-11T10:21:06.204Z,3932.00
2023-05-11T10:22:06.187Z,4492.00
2023-05-11T10:23:06.168Z,4116.00
2023-05-11T10:24:06.173Z,4380.00
2023-05-11T10:25:06.157Z,4436.00
2023-05-11T10:26:06.132Z,4628.00
2023-05-11T10:27:06.145Z,4652.00
2023-05-11T10:28:06.101Z,4636.00
2023-05-11T10:29:06.102Z,4516.00
2023-05-11T10:30:06.096Z,4336.00
2023-05-11T10:31:06.080Z,4496.00
2023-05-11T10:32:06.102Z,4552.00
2023-05-11T10:33:06.148Z,4552.00
2023-05-11T10:34:06.043Z,4424.00
2023-05-11T10:35:06.057Z,4488.00
2023-05-11T10:36:06.017Z,4524.00
2023-05-11T10:37:06.020Z,4548.00
2023-05-11T10:38:06.018Z,4636.00
2023-05-11T10:39:06.069Z,4712.00
2023-05-11T10:40:05.987Z,4820.00
2023-05-11T10:41:05.964Z,4896.00
2023-05-11T10:42:05.973Z,4992.00
2023-05-11T10:43:05.948Z,5020.00
2023-05-11T10:44:05.934Z,4932.00
2023-05-11T10:45:05.962Z,4984.00
2023-05-11T10:46:05.979Z,4884.00
2023-05-11T10:47:05.920Z,4784.00
2023-05-11T10:48:05.944Z,4836.00
2023-05-11T10:49:05.882Z,4888.00
2023-05-11T10:50:05.864Z,4980.00
2023-05-11T10:51:05.867Z,5048.00
2023-05-11T10:52:05.844Z,5148.00
2023-05-11T10:53:05.850Z,5200.00
2023-05-11T10:54:05.815Z,5216.00
2023-05-11T10:55:05.822Z,5260.00
2023-05-11T10:56:05.804Z,5328.00
2023-05-11T10:57:05.796Z,5404.00
2023-05-11T10:58:05.806Z,5464.00
2023-05-11T10:59:05.804Z,5504.00
2023-05-11T11:00:05.794Z,5544.00
2023-05-11T11:01:05.856Z,5556.00
2023-05-11T11:02:05.734Z,5500.00
2023-05-11T11:03:05.759Z,5556.00
2023-05-11T11:04:05.749Z,5580.00
2023-05-11T11:05:05.854Z,5612.00
2023-05-11T11:06:05.764Z,5612.00
2023-05-11T11:07:05.718Z,5544.00
2023-05-11T11:08:05.723Z,5624.00
2023-05-11T11:09:05.668Z,5704.00
2023-05-11T11:10:05.660Z,5760.00
2023-05-11T11:11:06.630Z,5804.00
2023-05-11T11:12:05.628Z,5836.00
2023-05-11T11:13:05.656Z,5828.00
2023-05-11T11:14:05.857Z,5844.00
2023-05-11T11:15:05.634Z,5868.00
2023-05-11T11:16:05.588Z,5896.00
2023-05-11T11:17:05.645Z,5876.00
2023-05-11T11:18:05.629Z,5836.00
2023-05-11T11:19:05.633Z,5676.00
2023-05-11T11:20:05.560Z,5604.00
2023-05-11T11:21:05.543Z,5696.00
2023-05-11T11:22:05.531Z,5796.00
2023-05-11T11:23:05.584Z,6092.00
2023-05-11T11:24:05.504Z,6108.00
2023-05-11T11:25:05.507Z,6468.00
2023-05-11T11:26:05.482Z,6556.00
2023-05-11T11:27:05.478Z,6504.00
2023-05-11T11:28:05.497Z,6328.00
2023-05-11T11:29:05.457Z,5704.00
2023-05-11T11:30:05.446Z,5316.00
2023-05-11T11:31:05.472Z,5612.00
2023-05-11T11:32:05.421Z,6148.00
2023-05-11T11:33:05.449Z,6280.00
2023-05-11T11:34:05.393Z,5920.00
2023-05-11T11:35:05.393Z,5196.00
2023-05-11T11:36:05.371Z,4644.00
2023-05-11T11:37:05.387Z,4760.00
2023-05-11T11:38:05.542Z,5132.00
2023-05-11T11:39:05.361Z,5592.00
2023-05-11T11:40:13.906Z,5832.00
2023-05-11T11:41:06.341Z,6292.00
2023-05-11T11:42:05.313Z,6524.00
2023-05-11T11:43:05.306Z,6344.00
2023-05-11T11:44:05.298Z,6332.00
2023-05-11T11:45:05.286Z,6352.00
2023-05-11T11:46:05.311Z,6304.00
2023-05-11T11:47:05.263Z,6488.00
2023-05-11T11:48:05.270Z,6852.00
2023-05-11T11:49:05.234Z,7152.00
2023-05-11T11:50:05.232Z,7256.00
2023-05-11T11:51:05.251Z,7184.00
2023-05-11T11:52:05.213Z,6940.00
2023-05-11T11:53:05.198Z,6832.00
2023-05-11T11:54:05.183Z,7076.00
2023-05-11T11:55:05.336Z,7348.00
2023-05-11T11:56:05.184Z,7468.00
2023-05-11T11:57:05.154Z,7496.00
2023-05-11T11:58:05.145Z,7432.00
2023-05-11T11:59:05.171Z,7404.00
2023-05-11T12:00:05.115Z,7532.00
2023-05-11T12:01:05.112Z,7800.00
2023-05-11T12:02:05.093Z,8088.00
2023-05-11T12:03:05.109Z,8268.00
2023-05-11T12:04:05.432Z,8020.00
2023-05-11T12:05:05.172Z,7284.00
2023-05-11T12:06:05.076Z,6168.00
2023-05-11T12:07:05.045Z,5452.00
2023-05-11T12:08:05.028Z,5568.00
2023-05-11T12:09:05.042Z,6176.00
2023-05-11T12:10:05.054Z,6720.00
2023-05-11T12:11:05.007Z,6948.00
2023-05-11T12:12:04.991Z,7040.00
2023-05-11T12:13:04.981Z,7384.00
2023-05-11T12:14:04.977Z,7692.00
2023-05-11T12:15:04.975Z,7680.00
2023-05-11T12:16:04.982Z,7216.00
2023-05-11T12:17:04.938Z,6592.00
2023-05-11T12:18:04.977Z,6108.00
2023-05-11T12:19:04.926Z,6112.00
2023-05-11T12:20:04.914Z,6664.00
2023-05-11T12:21:04.893Z,6836.00
2023-05-11T12:22:04.929Z,6908.00
2023-05-11T12:23:04.882Z,7380.00
2023-05-11T12:24:04.912Z,7912.00
2023-05-11T12:25:04.861Z,8368.00
2023-05-11T12:26:04.839Z,8676.00
2023-05-11T12:27:04.828Z,8748.00
2023-05-11T12:28:04.805Z,8940.00
2023-05-11T12:29:04.828Z,8988.00
2023-05-11T12:30:04.811Z,8808.00
2023-05-11T12:31:04.797Z,8084.00